Reeve, Indiana
Current Conditions -  °F | °C
As of 9:55 PM on Thursday 27 Nov 2014 (Local Time) from KDCY Reporting Station
Scattered Clouds Scattered Clouds  
Wind Chill: 16°   Ceiling: Unl
Heat Index: 24°   Visibility: 10mi
Dew Point: 21°   Wind: 7mph
Humidity: 88%   Direction: 310°NW
Pressure: 30.45"   Gusts: NA
Location:  38.6074°N, 86.9234°W
Report Text: KDCY 280355Z AUTO 31006KT 10SM SCT025 M04/M06 A3045 RMK AO2 T10421059
Loading
Personal Weather Stations






























Interactive Weather Map New forecast layout! Learn more

10-Day Weather Forecast

Advertisements
Track Severe Weather on mobile